sensor_id;sensor_type;location;lat;lon;timestamp;P1;durP1;ratioP1;P2;durP2;ratioP2
23632;SDS011;11993;48.748;9.166;2023-02-01T00:01:55;10.27;;;7.68;;
23632;SDS011;11993;48.748;9.166;2023-02-01T00:04:21;10.25;;;6.78;;
23632;SDS011;11993;48.748;9.166;2023-02-01T00:06:47;11.70;;;6.60;;
23632;SDS011;11993;48.748;9.166;2023-02-01T00:09:13;10.70;;;7.25;;
23632;SDS011;11993;48.748;9.166;2023-02-01T00:11:39;9.82;;;5.78;;
23632;SDS011;11993;48.748;9.166;2023-02-01T00:14:04;9.00;;;6.53;;
23632;SDS011;11993;48.748;9.166;2023-02-01T00:16:31;10.05;;;6.13;;
23632;SDS011;11993;48.748;9.166;2023-02-01T00:19:09;6.53;;;5.20;;
23632;SDS011;11993;48.748;9.166;2023-02-01T00:21:36;8.10;;;5.97;;
23632;SDS011;11993;48.748;9.166;2023-02-01T00:24:02;7.68;;;5.25;;
23632;SDS011;11993;48.748;9.166;2023-02-01T00:26:36;7.07;;;4.53;;
23632;SDS011;11993;48.748;9.166;2023-02-01T00:29:09;6.93;;;4.55;;
23632;SDS011;11993;48.748;9.166;2023-02-01T00:31:36;8.38;;;5.13;;
23632;SDS011;11993;48.748;9.166;2023-02-01T00:34:02;6.38;;;4.85;;
23632;SDS011;11993;48.748;9.166;2023-02-01T00:36:29;6.75;;;5.13;;
23632;SDS011;11993;48.748;9.166;2023-02-01T00:38:55;6.88;;;4.55;;
23632;SDS011;11993;48.748;9.166;2023-02-01T00:41:21;6.85;;;5.10;;
23632;SDS011;11993;48.748;9.166;2023-02-01T00:43:47;6.03;;;4.78;;
23632;SDS011;11993;48.748;9.166;2023-02-01T00:46:16;7.10;;;5.38;;
23632;SDS011;11993;48.748;9.166;2023-02-01T00:48:42;7.18;;;4.22;;
23632;SDS011;11993;48.748;9.166;2023-02-01T00:51:12;7.13;;;4.57;;
23632;SDS011;11993;48.748;9.166;2023-02-01T00:53:39;7.28;;;4.03;;
23632;SDS011;11993;48.748;9.166;2023-02-01T00:56:05;5.38;;;4.13;;
23632;SDS011;11993;48.748;9.166;2023-02-01T00:58:31;4.85;;;3.85;;
23632;SDS011;11993;48.748;9.166;2023-02-01T01:01:02;5.80;;;4.32;;
23632;SDS011;11993;48.748;9.166;2023-02-01T01:03:29;9.07;;;3.85;;
23632;SDS011;11993;48.748;9.166;2023-02-01T01:05:58;4.05;;;3.50;;
23632;SDS011;11993;48.748;9.166;2023-02-01T01:08:25;5.63;;;3.60;;
23632;SDS011;11993;48.748;9.166;2023-02-01T01:10:50;5.32;;;3.65;;
23632;SDS011;11993;48.748;9.166;2023-02-01T01:13:16;4.85;;;3.63;;
23632;SDS011;11993;48.748;9.166;2023-02-01T01:15:42;4.95;;;3.65;;
23632;SDS011;11993;48.748;9.166;2023-02-01T01:18:07;4.75;;;3.55;;
23632;SDS011;11993;48.748;9.166;2023-02-01T01:20:34;4.45;;;3.47;;
23632;SDS011;11993;48.748;9.166;2023-02-01T01:23:01;4.55;;;3.40;;
23632;SDS011;11993;48.748;9.166;2023-02-01T01:25:28;4.22;;;2.72;;
23632;SDS011;11993;48.748;9.166;2023-02-01T01:27:53;4.45;;;3.03;;
23632;SDS011;11993;48.748;9.166;2023-02-01T01:30:19;4.68;;;3.28;;
23632;SDS011;11993;48.748;9.166;2023-02-01T01:32:44;3.67;;;2.65;;
23632;SDS011;11993;48.748;9.166;2023-02-01T01:35:10;3.22;;;2.72;;
23632;SDS011;11993;48.748;9.166;2023-02-01T01:37:36;3.13;;;2.55;;
23632;SDS011;11993;48.748;9.166;2023-02-01T01:40:05;3.55;;;2.80;;
23632;SDS011;11993;48.748;9.166;2023-02-01T01:42:38;3.53;;;2.53;;
23632;SDS011;11993;48.748;9.166;2023-02-01T01:45:06;3.40;;;2.70;;
23632;SDS011;11993;48.748;9.166;2023-02-01T01:48:04;5.05;;;2.50;;
23632;SDS011;11993;48.748;9.166;2023-02-01T01:50:35;4.53;;;2.90;;
23632;SDS011;11993;48.748;9.166;2023-02-01T01:53:13;3.72;;;3.05;;
23632;SDS011;11993;48.748;9.166;2023-02-01T01:55:45;2.80;;;2.35;;
23632;SDS011;11993;48.748;9.166;2023-02-01T01:58:17;5.15;;;2.63;;
23632;SDS011;11993;48.748;9.166;2023-02-01T02:00:44;4.38;;;3.40;;
23632;SDS011;11993;48.748;9.166;2023-02-01T02:03:18;4.00;;;3.17;;
23632;SDS011;11993;48.748;9.166;2023-02-01T02:05:47;4.53;;;2.83;;
23632;SDS011;11993;48.748;9.166;2023-02-01T02:08:15;3.40;;;2.90;;
23632;SDS011;11993;48.748;9.166;2023-02-01T02:10:45;4.20;;;2.90;;
23632;SDS011;11993;48.748;9.166;2023-02-01T02:13:38;3.80;;;3.13;;
23632;SDS011;11993;48.748;9.166;2023-02-01T02:16:21;5.35;;;3.47;;
23632;SDS011;11993;48.748;9.166;2023-02-01T02:18:56;3.95;;;2.90;;
23632;SDS011;11993;48.748;9.166;2023-02-01T02:24:23;3.88;;;2.78;;
23632;SDS011;11993;48.748;9.166;2023-02-01T02:27:18;4.05;;;3.33;;
23632;SDS011;11993;48.748;9.166;2023-02-01T02:30:02;4.63;;;3.60;;
23632;SDS011;11993;48.748;9.166;2023-02-01T02:43:32;8.40;;;3.92;;
23632;SDS011;11993;48.748;9.166;2023-02-01T02:46:33;4.32;;;3.92;;
23632;SDS011;11993;48.748;9.166;2023-02-01T02:49:29;4.95;;;3.70;;
23632;SDS011;11993;48.748;9.166;2023-02-01T02:52:29;4.15;;;3.55;;
23632;SDS011;11993;48.748;9.166;2023-02-01T02:55:16;6.15;;;3.58;;
23632;SDS011;11993;48.748;9.166;2023-02-01T02:57:42;5.68;;;2.90;;
23632;SDS011;11993;48.748;9.166;2023-02-01T03:00:29;5.03;;;3.75;;
23632;SDS011;11993;48.748;9.166;2023-02-01T03:03:16;5.68;;;3.70;;
23632;SDS011;11993;48.748;9.166;2023-02-01T03:06:00;6.70;;;4.05;;
23632;SDS011;11993;48.748;9.166;2023-02-01T03:08:27;4.78;;;3.63;;
23632;SDS011;11993;48.748;9.166;2023-02-01T03:13:31;5.88;;;4.00;;
23632;SDS011;11993;48.748;9.166;2023-02-01T03:16:07;4.78;;;3.85;;
23632;SDS011;11993;48.748;9.166;2023-02-01T03:18:52;4.38;;;3.70;;
23632;SDS011;11993;48.748;9.166;2023-02-01T03:24:16;5.22;;;3.70;;
23632;SDS011;11993;48.748;9.166;2023-02-01T03:29:19;7.07;;;4.10;;
23632;SDS011;11993;48.748;9.166;2023-02-01T03:31:49;4.63;;;3.83;;
23632;SDS011;11993;48.748;9.166;2023-02-01T03:34:15;6.15;;;4.10;;
23632;SDS011;11993;48.748;9.166;2023-02-01T03:36:52;5.68;;;4.40;;
23632;SDS011;11993;48.748;9.166;2023-02-01T03:42:01;4.78;;;3.80;;
23632;SDS011;11993;48.748;9.166;2023-02-01T03:44:41;5.95;;;4.30;;
23632;SDS011;11993;48.748;9.166;2023-02-01T03:47:34;5.90;;;4.57;;
23632;SDS011;11993;48.748;9.166;2023-02-01T03:50:05;5.97;;;4.43;;
23632;SDS011;11993;48.748;9.166;2023-02-01T03:52:38;4.63;;;3.78;;
23632;SDS011;11993;48.748;9.166;2023-02-01T03:55:06;5.53;;;3.97;;
23632;SDS011;11993;48.748;9.166;2023-02-01T03:57:34;6.07;;;3.97;;
23632;SDS011;11993;48.748;9.166;2023-02-01T04:00:08;5.22;;;3.92;;
23632;SDS011;11993;48.748;9.166;2023-02-01T04:02:46;5.53;;;3.72;;
23632;SDS011;11993;48.748;9.166;2023-02-01T04:05:12;4.82;;;3.92;;
23632;SDS011;11993;48.748;9.166;2023-02-01T04:07:38;6.47;;;3.72;;
23632;SDS011;11993;48.748;9.166;2023-02-01T04:10:03;6.80;;;4.38;;
23632;SDS011;11993;48.748;9.166;2023-02-01T04:12:29;5.00;;;3.72;;
23632;SDS011;11993;48.748;9.166;2023-02-01T04:14:55;4.60;;;3.70;;
23632;SDS011;11993;48.748;9.166;2023-02-01T04:17:21;8.82;;;4.20;;
23632;SDS011;11993;48.748;9.166;2023-02-01T04:19:46;4.72;;;4.10;;
23632;SDS011;11993;48.748;9.166;2023-02-01T04:22:12;4.82;;;4.00;;
23632;SDS011;11993;48.748;9.166;2023-02-01T04:24:37;6.90;;;3.38;;
23632;SDS011;11993;48.748;9.166;2023-02-01T04:27:03;5.07;;;3.95;;
23632;SDS011;11993;48.748;9.166;2023-02-01T04:29:29;6.88;;;4.20;;
23632;SDS011;11993;48.748;9.166;2023-02-01T04:31:54;6.95;;;3.95;;
23632;SDS011;11993;48.748;9.166;2023-02-01T04:34:20;6.38;;;3.70;;
23632;SDS011;11993;48.748;9.166;2023-02-01T04:36:47;5.65;;;4.30;;
23632;SDS011;11993;48.748;9.166;2023-02-01T04:39:13;4.70;;;3.80;;
23632;SDS011;11993;48.748;9.166;2023-02-01T04:41:38;5.78;;;4.10;;
23632;SDS011;11993;48.748;9.166;2023-02-01T04:44:04;4.82;;;3.70;;
23632;SDS011;11993;48.748;9.166;2023-02-01T04:46:30;5.47;;;3.72;;
23632;SDS011;11993;48.748;9.166;2023-02-01T04:48:55;4.68;;;3.03;;
23632;SDS011;11993;48.748;9.166;2023-02-01T04:51:21;5.28;;;3.65;;
23632;SDS011;11993;48.748;9.166;2023-02-01T04:53:46;4.15;;;3.55;;
23632;SDS011;11993;48.748;9.166;2023-02-01T04:56:12;5.07;;;3.50;;
23632;SDS011;11993;48.748;9.166;2023-02-01T04:58:38;5.28;;;3.47;;
23632;SDS011;11993;48.748;9.166;2023-02-01T05:01:04;4.45;;;3.33;;
23632;SDS011;11993;48.748;9.166;2023-02-01T05:03:32;5.63;;;3.30;;
23632;SDS011;11993;48.748;9.166;2023-02-01T05:05:58;5.60;;;3.13;;
23632;SDS011;11993;48.748;9.166;2023-02-01T05:08:24;5.97;;;3.50;;
23632;SDS011;11993;48.748;9.166;2023-02-01T05:10:50;5.35;;;3.67;;
23632;SDS011;11993;48.748;9.166;2023-02-01T05:13:16;3.70;;;2.85;;
23632;SDS011;11993;48.748;9.166;2023-02-01T05:16:00;3.00;;;2.67;;
23632;SDS011;11993;48.748;9.166;2023-02-01T05:18:26;6.95;;;3.20;;
23632;SDS011;11993;48.748;9.166;2023-02-01T05:20:51;7.18;;;3.30;;
23632;SDS011;11993;48.748;9.166;2023-02-01T05:23:17;3.60;;;3.08;;
23632;SDS011;11993;48.748;9.166;2023-02-01T05:25:42;5.72;;;2.65;;
23632;SDS011;11993;48.748;9.166;2023-02-01T05:28:08;5.75;;;2.80;;
23632;SDS011;11993;48.748;9.166;2023-02-01T05:30:35;3.47;;;2.60;;
23632;SDS011;11993;48.748;9.166;2023-02-01T05:33:01;3.20;;;2.63;;
23632;SDS011;11993;48.748;9.166;2023-02-01T05:35:27;3.70;;;2.50;;
23632;SDS011;11993;48.748;9.166;2023-02-01T05:37:53;4.70;;;3.10;;
23632;SDS011;11993;48.748;9.166;2023-02-01T05:40:18;3.92;;;2.95;;
23632;SDS011;11993;48.748;9.166;2023-02-01T05:42:44;2.80;;;2.50;;
23632;SDS011;11993;48.748;9.166;2023-02-01T05:45:11;4.32;;;2.45;;
23632;SDS011;11993;48.748;9.166;2023-02-01T05:47:36;3.72;;;2.55;;
23632;SDS011;11993;48.748;9.166;2023-02-01T05:50:03;3.08;;;2.70;;
23632;SDS011;11993;48.748;9.166;2023-02-01T05:52:29;3.35;;;2.80;;
23632;SDS011;11993;48.748;9.166;2023-02-01T05:54:55;10.02;;;2.95;;
23632;SDS011;11993;48.748;9.166;2023-02-01T05:57:21;4.68;;;3.30;;
23632;SDS011;11993;48.748;9.166;2023-02-01T05:59:46;3.53;;;2.97;;
23632;SDS011;11993;48.748;9.166;2023-02-01T06:02:13;6.45;;;3.78;;
23632;SDS011;11993;48.748;9.166;2023-02-01T06:04:42;4.35;;;3.10;;
23632;SDS011;11993;48.748;9.166;2023-02-01T06:07:08;3.58;;;3.00;;
23632;SDS011;11993;48.748;9.166;2023-02-01T06:09:35;5.20;;;3.35;;
23632;SDS011;11993;48.748;9.166;2023-02-01T06:12:01;5.70;;;3.40;;
23632;SDS011;11993;48.748;9.166;2023-02-01T06:14:28;6.85;;;3.40;;
23632;SDS011;11993;48.748;9.166;2023-02-01T06:16:54;4.05;;;3.60;;
23632;SDS011;11993;48.748;9.166;2023-02-01T06:19:20;5.93;;;3.45;;
23632;SDS011;11993;48.748;9.166;2023-02-01T06:21:46;4.28;;;3.13;;
23632;SDS011;11993;48.748;9.166;2023-02-01T06:24:12;6.47;;;3.42;;
23632;SDS011;11993;48.748;9.166;2023-02-01T06:26:37;5.25;;;3.40;;
23632;SDS011;11993;48.748;9.166;2023-02-01T06:29:04;5.10;;;3.35;;
23632;SDS011;11993;48.748;9.166;2023-02-01T06:31:31;5.20;;;3.45;;
23632;SDS011;11993;48.748;9.166;2023-02-01T06:33:57;4.47;;;3.08;;
23632;SDS011;11993;48.748;9.166;2023-02-01T06:36:23;5.55;;;3.13;;
23632;SDS011;11993;48.748;9.166;2023-02-01T06:38:48;5.53;;;3.33;;
23632;SDS011;11993;48.748;9.166;2023-02-01T06:41:14;5.78;;;3.40;;
23632;SDS011;11993;48.748;9.166;2023-02-01T06:43:40;13.52;;;3.50;;
23632;SDS011;11993;48.748;9.166;2023-02-01T06:46:10;4.80;;;2.97;;
23632;SDS011;11993;48.748;9.166;2023-02-01T06:48:37;6.90;;;4.43;;
23632;SDS011;11993;48.748;9.166;2023-02-01T06:51:03;5.78;;;2.90;;
23632;SDS011;11993;48.748;9.166;2023-02-01T06:53:29;5.43;;;2.72;;
23632;SDS011;11993;48.748;9.166;2023-02-01T06:55:56;5.90;;;3.33;;
23632;SDS011;11993;48.748;9.166;2023-02-01T06:58:24;5.65;;;2.80;;
23632;SDS011;11993;48.748;9.166;2023-02-01T07:00:54;6.40;;;2.95;;
23632;SDS011;11993;48.748;9.166;2023-02-01T07:03:20;8.20;;;3.28;;
23632;SDS011;11993;48.748;9.166;2023-02-01T07:05:45;9.15;;;2.97;;
23632;SDS011;11993;48.748;9.166;2023-02-01T07:08:11;7.28;;;2.92;;
23632;SDS011;11993;48.748;9.166;2023-02-01T07:10:37;4.32;;;2.78;;
23632;SDS011;11993;48.748;9.166;2023-02-01T07:13:02;6.05;;;3.45;;
23632;SDS011;11993;48.748;9.166;2023-02-01T07:15:28;4.68;;;2.70;;
23632;SDS011;11993;48.748;9.166;2023-02-01T07:17:54;3.58;;;2.40;;
23632;SDS011;11993;48.748;9.166;2023-02-01T07:20:20;5.55;;;2.97;;
23632;SDS011;11993;48.748;9.166;2023-02-01T07:22:46;4.82;;;2.78;;
23632;SDS011;11993;48.748;9.166;2023-02-01T07:25:11;7.10;;;2.90;;
23632;SDS011;11993;48.748;9.166;2023-02-01T07:27:37;4.38;;;2.90;;
23632;SDS011;11993;48.748;9.166;2023-02-01T07:30:05;4.88;;;2.80;;
23632;SDS011;11993;48.748;9.166;2023-02-01T07:32:32;6.28;;;2.58;;
23632;SDS011;11993;48.748;9.166;2023-02-01T07:34:57;4.78;;;2.92;;
23632;SDS011;11993;48.748;9.166;2023-02-01T07:37:23;12.20;;;3.28;;
23632;SDS011;11993;48.748;9.166;2023-02-01T07:39:49;7.30;;;3.08;;
23632;SDS011;11993;48.748;9.166;2023-02-01T07:42:16;13.88;;;4.22;;
23632;SDS011;11993;48.748;9.166;2023-02-01T07:44:42;4.32;;;3.03;;
23632;SDS011;11993;48.748;9.166;2023-02-01T07:47:07;8.73;;;3.95;;
23632;SDS011;11993;48.748;9.166;2023-02-01T07:49:33;18.73;;;4.13;;
23632;SDS011;11993;48.748;9.166;2023-02-01T07:51:58;45.65;;;6.90;;
23632;SDS011;11993;48.748;9.166;2023-02-01T07:54:24;14.68;;;4.30;;
23632;SDS011;11993;48.748;9.166;2023-02-01T07:56:49;9.70;;;3.22;;
23632;SDS011;11993;48.748;9.166;2023-02-01T07:59:16;5.82;;;2.72;;
23632;SDS011;11993;48.748;9.166;2023-02-01T08:01:42;6.65;;;2.97;;
23632;SDS011;11993;48.748;9.166;2023-02-01T08:04:09;4.60;;;2.53;;
23632;SDS011;11993;48.748;9.166;2023-02-01T08:06:38;5.05;;;2.97;;
23632;SDS011;11993;48.748;9.166;2023-02-01T08:09:04;4.18;;;2.50;;
23632;SDS011;11993;48.748;9.166;2023-02-01T08:11:31;8.35;;;2.92;;
23632;SDS011;11993;48.748;9.166;2023-02-01T08:13:57;5.82;;;2.80;;
23632;SDS011;11993;48.748;9.166;2023-02-01T08:16:23;5.78;;;2.88;;
23632;SDS011;11993;48.748;9.166;2023-02-01T08:18:49;5.90;;;3.33;;
23632;SDS011;11993;48.748;9.166;2023-02-01T08:21:17;5.03;;;3.65;;
23632;SDS011;11993;48.748;9.166;2023-02-01T08:23:45;6.68;;;2.92;;
23632;SDS011;11993;48.748;9.166;2023-02-01T08:26:15;7.93;;;3.25;;
23632;SDS011;11993;48.748;9.166;2023-02-01T08:28:45;7.18;;;3.20;;
23632;SDS011;11993;48.748;9.166;2023-02-01T08:31:13;4.18;;;2.95;;
23632;SDS011;11993;48.748;9.166;2023-02-01T08:33:41;6.00;;;3.03;;
23632;SDS011;11993;48.748;9.166;2023-02-01T08:36:08;5.80;;;2.85;;
23632;SDS011;11993;48.748;9.166;2023-02-01T08:38:36;7.03;;;3.10;;
23632;SDS011;11993;48.748;9.166;2023-02-01T08:41:07;5.57;;;3.13;;
23632;SDS011;11993;48.748;9.166;2023-02-01T08:43:34;6.45;;;3.17;;
23632;SDS011;11993;48.748;9.166;2023-02-01T08:46:00;5.28;;;2.30;;
23632;SDS011;11993;48.748;9.166;2023-02-01T08:48:27;9.27;;;3.22;;
23632;SDS011;11993;48.748;9.166;2023-02-01T08:50:53;17.75;;;3.25;;
23632;SDS011;11993;48.748;9.166;2023-02-01T08:53:18;8.32;;;2.72;;
23632;SDS011;11993;48.748;9.166;2023-02-01T08:55:45;8.60;;;3.47;;
23632;SDS011;11993;48.748;9.166;2023-02-01T08:58:12;8.23;;;2.47;;
23632;SDS011;11993;48.748;9.166;2023-02-01T09:00:39;14.05;;;3.83;;
23632;SDS011;11993;48.748;9.166;2023-02-01T09:03:05;8.38;;;3.00;;
23632;SDS011;11993;48.748;9.166;2023-02-01T09:05:34;13.63;;;3.72;;
23632;SDS011;11993;48.748;9.166;2023-02-01T09:07:59;14.88;;;3.55;;
23632;SDS011;11993;48.748;9.166;2023-02-01T09:10:25;16.45;;;3.42;;
23632;SDS011;11993;48.748;9.166;2023-02-01T09:12:51;15.00;;;3.47;;
23632;SDS011;11993;48.748;9.166;2023-02-01T09:15:17;8.98;;;2.90;;
23632;SDS011;11993;48.748;9.166;2023-02-01T09:17:42;11.07;;;3.00;;
23632;SDS011;11993;48.748;9.166;2023-02-01T09:20:08;12.68;;;3.17;;
23632;SDS011;11993;48.748;9.166;2023-02-01T09:22:34;7.07;;;2.90;;
23632;SDS011;11993;48.748;9.166;2023-02-01T09:25:00;11.27;;;3.08;;
23632;SDS011;11993;48.748;9.166;2023-02-01T09:27:25;8.82;;;2.67;;
23632;SDS011;11993;48.748;9.166;2023-02-01T09:29:51;11.50;;;3.25;;
23632;SDS011;11993;48.748;9.166;2023-02-01T09:32:20;17.83;;;3.40;;
23632;SDS011;11993;48.748;9.166;2023-02-01T09:34:47;13.35;;;3.28;;
23632;SDS011;11993;48.748;9.166;2023-02-01T09:37:13;17.95;;;6.07;;
23632;SDS011;11993;48.748;9.166;2023-02-01T09:39:39;13.98;;;3.60;;
23632;SDS011;11993;48.748;9.166;2023-02-01T09:47:23;13.48;;;3.08;;
23632;SDS011;11993;48.748;9.166;2023-02-01T09:49:59;11.05;;;2.95;;
23632;SDS011;11993;48.748;9.166;2023-02-01T09:52:45;15.27;;;4.28;;
23632;SDS011;11993;48.748;9.166;2023-02-01T09:55:39;16.65;;;3.38;;
23632;SDS011;11993;48.748;9.166;2023-02-01T09:58:27;10.23;;;2.50;;
23632;SDS011;11993;48.748;9.166;2023-02-01T10:01:03;15.82;;;3.50;;
23632;SDS011;11993;48.748;9.166;2023-02-01T10:03:31;15.55;;;3.63;;
23632;SDS011;11993;48.748;9.166;2023-02-01T10:11:42;16.88;;;3.63;;
23632;SDS011;11993;48.748;9.166;2023-02-01T10:16:55;8.73;;;2.92;;
23632;SDS011;11993;48.748;9.166;2023-02-01T10:22:17;8.70;;;2.85;;
23632;SDS011;11993;48.748;9.166;2023-02-01T10:24:46;12.68;;;3.35;;
23632;SDS011;11993;48.748;9.166;2023-02-01T10:27:22;13.30;;;3.33;;
23632;SDS011;11993;48.748;9.166;2023-02-01T10:29:58;14.18;;;3.38;;
23632;SDS011;11993;48.748;9.166;2023-02-01T10:32:29;19.65;;;3.88;;
23632;SDS011;11993;48.748;9.166;2023-02-01T10:35:01;11.75;;;2.63;;
23632;SDS011;11993;48.748;9.166;2023-02-01T10:37:35;13.68;;;3.20;;
23632;SDS011;11993;48.748;9.166;2023-02-01T10:40:15;16.50;;;3.40;;
23632;SDS011;11993;48.748;9.166;2023-02-01T10:42:42;19.75;;;2.95;;
23632;SDS011;11993;48.748;9.166;2023-02-01T10:45:16;16.15;;;3.33;;
23632;SDS011;11993;48.748;9.166;2023-02-01T10:47:44;12.35;;;3.15;;
23632;SDS011;11993;48.748;9.166;2023-02-01T10:50:16;17.65;;;3.05;;
23632;SDS011;11993;48.748;9.166;2023-02-01T10:56:05;18.80;;;3.35;;
23632;SDS011;11993;48.748;9.166;2023-02-01T10:58:42;10.05;;;2.35;;
23632;SDS011;11993;48.748;9.166;2023-02-01T11:01:16;14.23;;;2.67;;
23632;SDS011;11993;48.748;9.166;2023-02-01T11:03:56;14.40;;;3.03;;
23632;SDS011;11993;48.748;9.166;2023-02-01T11:06:26;12.93;;;2.60;;
23632;SDS011;11993;48.748;9.166;2023-02-01T11:08:53;14.27;;;3.08;;
23632;SDS011;11993;48.748;9.166;2023-02-01T11:11:20;17.48;;;4.28;;
23632;SDS011;11993;48.748;9.166;2023-02-01T11:14:00;18.00;;;3.35;;
23632;SDS011;11993;48.748;9.166;2023-02-01T11:16:36;17.15;;;3.10;;
23632;SDS011;11993;48.748;9.166;2023-02-01T11:19:04;11.30;;;3.00;;
23632;SDS011;11993;48.748;9.166;2023-02-01T11:21:31;17.30;;;3.20;;
23632;SDS011;11993;48.748;9.166;2023-02-01T11:24:04;13.52;;;3.40;;
23632;SDS011;11993;48.748;9.166;2023-02-01T11:26:34;13.07;;;3.38;;
23632;SDS011;11993;48.748;9.166;2023-02-01T11:29:10;12.65;;;3.28;;
23632;SDS011;11993;48.748;9.166;2023-02-01T11:31:39;20.83;;;3.83;;
23632;SDS011;11993;48.748;9.166;2023-02-01T11:34:08;23.10;;;3.35;;
23632;SDS011;11993;48.748;9.166;2023-02-01T11:36:41;15.68;;;3.17;;
23632;SDS011;11993;48.748;9.166;2023-02-01T11:44:31;20.55;;;5.35;;
23632;SDS011;11993;48.748;9.166;2023-02-01T11:49:54;15.48;;;3.50;;
23632;SDS011;11993;48.748;9.166;2023-02-01T11:52:43;14.75;;;3.08;;
23632;SDS011;11993;48.748;9.166;2023-02-01T12:00:43;10.57;;;3.10;;
23632;SDS011;11993;48.748;9.166;2023-02-01T12:09:02;22.08;;;3.42;;
23632;SDS011;11993;48.748;9.166;2023-02-01T12:11:46;13.40;;;2.97;;
23632;SDS011;11993;48.748;9.166;2023-02-01T12:14:23;12.63;;;2.80;;
23632;SDS011;11993;48.748;9.166;2023-02-01T12:17:18;14.65;;;2.78;;
23632;SDS011;11993;48.748;9.166;2023-02-01T12:20:09;16.88;;;3.53;;
23632;SDS011;11993;48.748;9.166;2023-02-01T12:28:30;10.27;;;2.63;;
23632;SDS011;11993;48.748;9.166;2023-02-01T12:36:36;11.48;;;2.90;;
23632;SDS011;11993;48.748;9.166;2023-02-01T12:39:23;14.20;;;3.08;;
23632;SDS011;11993;48.748;9.166;2023-02-01T12:42:13;16.27;;;4.03;;
23632;SDS011;11993;48.748;9.166;2023-02-01T12:44:51;14.65;;;3.20;;
23632;SDS011;11993;48.748;9.166;2023-02-01T12:47:48;12.07;;;2.67;;
23632;SDS011;11993;48.748;9.166;2023-02-01T12:50:33;14.73;;;3.22;;
23632;SDS011;11993;48.748;9.166;2023-02-01T12:53:12;13.02;;;3.08;;
23632;SDS011;11993;48.748;9.166;2023-02-01T12:55:49;13.88;;;3.15;;
23632;SDS011;11993;48.748;9.166;2023-02-01T13:01:00;14.07;;;3.60;;
23632;SDS011;11993;48.748;9.166;2023-02-01T13:03:38;17.13;;;3.25;;
23632;SDS011;11993;48.748;9.166;2023-02-01T13:06:34;19.23;;;3.65;;
23632;SDS011;11993;48.748;9.166;2023-02-01T13:11:47;14.77;;;3.35;;
23632;SDS011;11993;48.748;9.166;2023-02-01T13:15:03;11.82;;;3.13;;
23632;SDS011;11993;48.748;9.166;2023-02-01T13:17:09;13.45;;;3.00;;
23632;SDS011;11993;48.748;9.166;2023-02-01T13:19:48;14.68;;;3.17;;
23632;SDS011;11993;48.748;9.166;2023-02-01T13:27:36;20.92;;;3.13;;
23632;SDS011;11993;48.748;9.166;2023-02-01T13:35:43;16.60;;;3.15;;
23632;SDS011;11993;48.748;9.166;2023-02-01T13:41:24;16.70;;;3.03;;
23632;SDS011;11993;48.748;9.166;2023-02-01T13:43:52;15.60;;;4.15;;
23632;SDS011;11993;48.748;9.166;2023-02-01T13:46:22;11.73;;;2.75;;
23632;SDS011;11993;48.748;9.166;2023-02-01T13:48:52;22.27;;;3.85;;
23632;SDS011;11993;48.748;9.166;2023-02-01T13:54:21;14.27;;;3.33;;
23632;SDS011;11993;48.748;9.166;2023-02-01T13:56:48;9.30;;;3.05;;
23632;SDS011;11993;48.748;9.166;2023-02-01T14:05:11;15.48;;;3.60;;
23632;SDS011;11993;48.748;9.166;2023-02-01T14:07:36;13.95;;;3.05;;
23632;SDS011;11993;48.748;9.166;2023-02-01T14:23:44;13.55;;;3.28;;
23632;SDS011;11993;48.748;9.166;2023-02-01T14:26:16;13.77;;;3.15;;
23632;SDS011;11993;48.748;9.166;2023-02-01T14:28:49;18.23;;;3.10;;
23632;SDS011;11993;48.748;9.166;2023-02-01T14:34:13;14.82;;;3.38;;
23632;SDS011;11993;48.748;9.166;2023-02-01T14:36:43;10.57;;;2.72;;
23632;SDS011;11993;48.748;9.166;2023-02-01T14:39:22;10.98;;;2.20;;
23632;SDS011;11993;48.748;9.166;2023-02-01T14:41:57;8.40;;;2.75;;
23632;SDS011;11993;48.748;9.166;2023-02-01T14:44:27;13.43;;;3.03;;
23632;SDS011;11993;48.748;9.166;2023-02-01T14:49:36;16.08;;;3.22;;
23632;SDS011;11993;48.748;9.166;2023-02-01T14:52:17;12.93;;;3.13;;
23632;SDS011;11993;48.748;9.166;2023-02-01T14:54:48;21.23;;;3.38;;
23632;SDS011;11993;48.748;9.166;2023-02-01T14:57:18;18.67;;;3.65;;
23632;SDS011;11993;48.748;9.166;2023-02-01T14:59:47;18.33;;;3.20;;
23632;SDS011;11993;48.748;9.166;2023-02-01T15:02:20;14.18;;;3.42;;
23632;SDS011;11993;48.748;9.166;2023-02-01T15:04:53;22.83;;;3.72;;
23632;SDS011;11993;48.748;9.166;2023-02-01T15:07:20;14.77;;;2.72;;
23632;SDS011;11993;48.748;9.166;2023-02-01T15:09:48;15.32;;;3.25;;
23632;SDS011;11993;48.748;9.166;2023-02-01T15:12:16;18.50;;;2.88;;
23632;SDS011;11993;48.748;9.166;2023-02-01T15:17:38;18.23;;;3.38;;
23632;SDS011;11993;48.748;9.166;2023-02-01T15:22:38;22.95;;;3.05;;
23632;SDS011;11993;48.748;9.166;2023-02-01T15:25:03;19.45;;;3.42;;
23632;SDS011;11993;48.748;9.166;2023-02-01T15:27:30;13.35;;;3.35;;
23632;SDS011;11993;48.748;9.166;2023-02-01T15:30:17;18.17;;;3.22;;
23632;SDS011;11993;48.748;9.166;2023-02-01T15:32:45;13.93;;;2.83;;
23632;SDS011;11993;48.748;9.166;2023-02-01T15:41:31;7.43;;;2.70;;
23632;SDS011;11993;48.748;9.166;2023-02-01T15:46:08;21.38;;;3.65;;
23632;SDS011;11993;48.748;9.166;2023-02-01T15:48:48;17.05;;;4.10;;
23632;SDS011;11993;48.748;9.166;2023-02-01T15:51:22;8.40;;;2.70;;
23632;SDS011;11993;48.748;9.166;2023-02-01T15:53:53;12.82;;;2.67;;
23632;SDS011;11993;48.748;9.166;2023-02-01T15:56:22;13.65;;;3.13;;
23632;SDS011;11993;48.748;9.166;2023-02-01T15:58:51;12.60;;;2.50;;
23632;SDS011;11993;48.748;9.166;2023-02-01T16:01:20;20.55;;;3.17;;
23632;SDS011;11993;48.748;9.166;2023-02-01T16:03:46;12.50;;;2.40;;
23632;SDS011;11993;48.748;9.166;2023-02-01T16:08:52;14.00;;;2.78;;
23632;SDS011;11993;48.748;9.166;2023-02-01T16:11:32;16.27;;;3.05;;
23632;SDS011;11993;48.748;9.166;2023-02-01T16:14:06;14.02;;;3.03;;
23632;SDS011;11993;48.748;9.166;2023-02-01T16:16:32;10.65;;;2.78;;
23632;SDS011;11993;48.748;9.166;2023-02-01T16:18:57;13.68;;;2.58;;
23632;SDS011;11993;48.748;9.166;2023-02-01T16:21:23;8.55;;;2.67;;
23632;SDS011;11993;48.748;9.166;2023-02-01T16:23:49;14.60;;;3.25;;
23632;SDS011;11993;48.748;9.166;2023-02-01T16:26:16;19.70;;;5.88;;
23632;SDS011;11993;48.748;9.166;2023-02-01T16:28:42;40.25;;;16.67;;
23632;SDS011;11993;48.748;9.166;2023-02-01T16:31:11;18.67;;;3.92;;
23632;SDS011;11993;48.748;9.166;2023-02-01T16:33:53;15.20;;;3.27;;
23632;SDS011;11993;48.748;9.166;2023-02-01T16:36:19;12.32;;;2.72;;
23632;SDS011;11993;48.748;9.166;2023-02-01T16:38:46;14.65;;;2.97;;
23632;SDS011;11993;48.748;9.166;2023-02-01T16:41:14;15.73;;;3.10;;
23632;SDS011;11993;48.748;9.166;2023-02-01T16:43:43;15.20;;;3.08;;
23632;SDS011;11993;48.748;9.166;2023-02-01T16:46:12;12.10;;;2.78;;
23632;SDS011;11993;48.748;9.166;2023-02-01T16:48:40;15.77;;;3.13;;
23632;SDS011;11993;48.748;9.166;2023-02-01T16:51:08;15.63;;;3.28;;
23632;SDS011;11993;48.748;9.166;2023-02-01T16:53:36;15.60;;;3.38;;
23632;SDS011;11993;48.748;9.166;2023-02-01T16:56:04;12.70;;;2.53;;
23632;SDS011;11993;48.748;9.166;2023-02-01T16:58:39;10.30;;;2.83;;
23632;SDS011;11993;48.748;9.166;2023-02-01T17:01:07;12.13;;;2.70;;
23632;SDS011;11993;48.748;9.166;2023-02-01T17:03:34;17.27;;;3.08;;
23632;SDS011;11993;48.748;9.166;2023-02-01T17:06:00;13.48;;;2.67;;
23632;SDS011;11993;48.748;9.166;2023-02-01T17:08:30;9.63;;;2.65;;
23632;SDS011;11993;48.748;9.166;2023-02-01T17:11:01;12.55;;;3.10;;
23632;SDS011;11993;48.748;9.166;2023-02-01T17:13:28;7.85;;;3.17;;
23632;SDS011;11993;48.748;9.166;2023-02-01T17:15:56;8.02;;;2.85;;
23632;SDS011;11993;48.748;9.166;2023-02-01T17:18:31;14.60;;;3.42;;
23632;SDS011;11993;48.748;9.166;2023-02-01T17:20:59;18.52;;;3.35;;